createdAt,value
2018-12-01T00:00:45.467Z,15.97
2018-12-01T00:03:14.787Z,14.17
2018-12-01T00:06:00.938Z,16.97
2018-12-01T00:08:30.522Z,13.90
2018-12-01T00:11:00.067Z,15.47
2018-12-01T00:13:29.619Z,14.27
2018-12-01T00:15:58.916Z,15.67
2018-12-01T00:18:28.507Z,15.23
2018-12-01T00:20:58.070Z,16.90
2018-12-01T00:23:27.643Z,15.37
2018-12-01T00:25:57.239Z,18.57
2018-12-01T00:28:26.822Z,15.03
2018-12-01T00:30:56.370Z,16.40
2018-12-01T00:33:25.959Z,16.20
2018-12-01T00:35:55.500Z,16.00
2018-12-01T00:38:25.050Z,16.07
2018-12-01T00:40:54.616Z,15.33
2018-12-01T00:43:24.182Z,16.40
2018-12-01T00:45:53.727Z,16.47
2018-12-01T00:48:23.271Z,17.17
2018-12-01T00:50:52.839Z,15.07
2018-12-01T00:53:22.407Z,16.63
2018-12-01T00:55:51.951Z,14.90
2018-12-01T00:58:21.487Z,15.00
2018-12-01T01:00:51.054Z,13.90
2018-12-01T01:03:20.607Z,15.27
2018-12-01T01:05:50.206Z,17.20
2018-12-01T01:08:19.770Z,14.00
2018-12-01T01:10:49.339Z,16.43
2018-12-01T01:13:19.285Z,15.73
2018-12-01T01:15:48.908Z,16.20
2018-12-01T01:18:18.444Z,16.73
2018-12-01T01:20:48.015Z,16.47
2018-12-01T01:23:17.648Z,15.43
2018-12-01T01:25:47.195Z,16.60
2018-12-01T01:28:16.743Z,17.37
2018-12-01T01:30:46.311Z,15.60
2018-12-01T01:33:36.571Z,16.30
2018-12-01T01:41:51.063Z,14.97
2018-12-01T01:44:20.551Z,15.90
2018-12-01T01:46:50.137Z,17.07
2018-12-01T01:49:19.731Z,17.60
2018-12-01T01:51:49.323Z,17.80
2018-12-01T01:54:18.522Z,15.83
2018-12-01T01:56:47.987Z,15.63
2018-12-01T01:59:17.617Z,15.97
2018-12-01T02:01:47.183Z,16.63
2018-12-01T02:04:16.486Z,15.77
2018-12-01T02:06:45.831Z,16.43
2018-12-01T02:09:18.657Z,15.27
2018-12-01T02:11:49.235Z,16.70
2018-12-01T02:14:19.340Z,16.87
2018-12-01T02:16:55.825Z,16.13
2018-12-01T02:19:35.502Z,16.83
2018-12-01T02:22:06.643Z,17.33
2018-12-01T02:24:36.207Z,16.63
2018-12-01T02:27:05.995Z,15.60
2018-12-01T02:29:35.327Z,17.33
2018-12-01T02:32:05.020Z,19.37
2018-12-01T02:34:34.323Z,17.70
2018-12-01T02:37:03.952Z,16.63
2018-12-01T02:39:33.579Z,17.63
2018-12-01T02:42:08.674Z,17.43
2018-12-01T02:47:50.027Z,16.67
2018-12-01T02:50:26.635Z,18.67
2018-12-01T02:52:57.107Z,17.70
2018-12-01T02:55:26.720Z,17.30
2018-12-01T02:57:56.497Z,18.17
2018-12-01T03:00:26.606Z,18.60
2018-12-01T03:02:56.190Z,17.50
2018-12-01T03:05:25.916Z,18.30
2018-12-01T03:07:55.886Z,17.83
2018-12-01T03:10:26.628Z,18.63
2018-12-01T03:12:56.476Z,17.63
2018-12-01T03:15:26.075Z,17.53
2018-12-01T03:17:55.995Z,18.17
2018-12-01T03:20:25.658Z,17.10
2018-12-01T03:22:55.210Z,17.50
2018-12-01T03:25:24.786Z,18.60
2018-12-01T03:27:55.686Z,17.33
2018-12-01T03:30:26.087Z,17.80
2018-12-01T03:32:55.977Z,19.97
2018-12-01T03:35:26.211Z,18.40
2018-12-01T03:37:55.774Z,18.87
2018-12-01T03:40:25.108Z,18.87
2018-12-01T03:42:54.703Z,19.17
2018-12-01T03:45:24.324Z,18.27
2018-12-01T03:47:53.883Z,17.03
2018-12-01T03:50:24.122Z,18.97
2018-12-01T03:52:57.767Z,19.03
2018-12-01T03:55:29.458Z,19.80
2018-12-01T03:57:59.166Z,20.90
2018-12-01T04:00:32.551Z,19.07
2018-12-01T04:03:02.789Z,18.93
2018-12-01T04:05:32.514Z,18.20
2018-12-01T04:08:02.103Z,18.60
2018-12-01T04:10:31.683Z,18.57
2018-12-01T04:13:01.348Z,20.10
2018-12-01T04:15:31.011Z,20.43
2018-12-01T04:18:00.595Z,19.50
2018-12-01T04:20:30.266Z,20.30
2018-12-01T04:22:59.862Z,19.43
2018-12-01T04:25:29.469Z,19.37
2018-12-01T04:44:57.974Z,18.10
2018-12-01T04:47:27.495Z,17.90
2018-12-01T04:49:58.355Z,24.27
2018-12-01T04:52:27.929Z,29.23
2018-12-01T04:54:57.511Z,27.13
2018-12-01T04:57:26.715Z,32.23
2018-12-01T08:22:46.714Z,38.17
2018-12-01T08:25:17.358Z,26.83
2018-12-01T08:27:49.236Z,28.50
2018-12-01T08:30:19.966Z,28.30
2018-12-01T08:32:49.459Z,29.60
2018-12-01T08:35:19.459Z,26.83
2018-12-01T08:37:48.783Z,25.17
2018-12-01T08:40:19.515Z,30.97
2018-12-01T08:42:49.059Z,24.17
2018-12-01T08:45:18.639Z,26.50
2018-12-01T08:47:48.212Z,24.23
2018-12-01T08:50:18.906Z,25.37
2018-12-01T08:52:48.476Z,25.20
2018-12-01T08:55:18.213Z,24.00
2018-12-01T08:57:47.726Z,24.63
2018-12-01T09:00:23.265Z,24.57
2018-12-01T09:02:54.491Z,27.30
2018-12-01T09:05:24.058Z,27.80
2018-12-01T09:07:53.602Z,27.40
2018-12-01T09:10:23.146Z,26.67
2018-12-01T09:12:52.798Z,26.20
2018-12-01T09:15:21.970Z,30.20
2018-12-01T09:17:51.456Z,27.87
2018-12-01T09:20:21.019Z,27.97
2018-12-01T09:22:50.567Z,31.27
2018-12-01T09:25:19.750Z,32.53
2018-12-01T09:27:49.243Z,31.93
2018-12-01T09:30:21.142Z,30.37
2018-12-01T09:32:50.717Z,31.97
2018-12-01T09:35:19.942Z,32.07
2018-12-01T09:37:49.411Z,34.40
2018-12-01T09:40:20.172Z,31.63
2018-12-01T09:42:49.926Z,33.30
2018-12-01T09:45:20.724Z,31.50
2018-12-01T09:47:50.261Z,33.57
2018-12-01T09:50:19.719Z,30.63
2018-12-01T09:52:51.467Z,33.03
2018-12-01T09:55:22.184Z,32.07
2018-12-01T09:57:51.670Z,32.27
2018-12-01T10:00:24.559Z,34.57
2018-12-01T10:02:54.054Z,34.87
2018-12-01T10:05:23.373Z,32.37
2018-12-01T10:07:52.840Z,34.13
2018-12-01T10:10:23.291Z,31.17
2018-12-01T10:12:54.753Z,29.90
2018-12-01T10:15:25.354Z,30.37
2018-12-01T10:17:54.967Z,30.70
2018-12-01T10:20:39.258Z,32.77
2018-12-01T10:23:11.867Z,30.63
2018-12-01T10:25:41.417Z,30.20
2018-12-01T10:28:11.431Z,34.00
2018-12-01T10:30:41.024Z,30.50
2018-12-01T10:33:10.582Z,34.53
2018-12-01T10:35:40.111Z,33.53
2018-12-01T10:38:13.406Z,35.73
2018-12-01T10:40:42.963Z,33.53
2018-12-01T10:43:12.596Z,34.20
2018-12-01T10:45:42.161Z,35.30
2018-12-01T10:48:11.728Z,35.50
2018-12-01T10:50:41.303Z,34.57
2018-12-01T10:53:10.915Z,32.70
2018-12-01T10:55:40.478Z,36.17
2018-12-01T10:58:14.467Z,40.93
2018-12-01T11:00:50.213Z,34.57
2018-12-01T11:03:25.274Z,34.07
2018-12-01T11:05:55.675Z,33.30
2018-12-01T11:08:24.838Z,37.17
2018-12-01T11:10:55.369Z,38.40
2018-12-01T11:13:24.079Z,31.47
2018-12-01T11:15:53.637Z,38.53
2018-12-01T11:18:23.263Z,35.97
2018-12-01T11:20:52.875Z,36.60
2018-12-01T11:23:22.483Z,38.60
2018-12-01T11:25:52.050Z,39.67
2018-12-01T11:28:21.607Z,35.23
2018-12-01T11:30:51.163Z,37.23
2018-12-01T11:33:20.838Z,36.20
2018-12-01T11:35:50.507Z,36.90
2018-12-01T11:38:20.051Z,36.33
2018-12-01T11:40:49.627Z,35.53
2018-12-01T11:43:19.154Z,33.20
2018-12-01T11:45:48.699Z,35.03
2018-12-01T11:48:18.342Z,36.93
2018-12-01T11:50:47.903Z,36.30
2018-12-01T11:53:17.497Z,33.90
2018-12-01T11:55:47.071Z,33.80
2018-12-01T11:58:16.619Z,32.77
2018-12-01T12:00:46.172Z,31.67
2018-12-01T12:03:15.755Z,36.23
2018-12-01T12:05:45.305Z,31.07
2018-12-01T12:08:20.708Z,29.93
2018-12-01T12:10:50.310Z,30.80
2018-12-01T12:13:21.046Z,30.03
2018-12-01T12:15:50.648Z,31.67
2018-12-01T12:18:20.555Z,33.67
2018-12-01T12:20:50.225Z,31.33
2018-12-01T12:23:19.788Z,29.27
2018-12-01T12:25:49.331Z,32.10
2018-12-01T12:28:18.546Z,32.57
2018-12-01T12:30:48.051Z,29.83
2018-12-01T12:33:18.361Z,30.73
2018-12-01T12:35:48.663Z,33.53
2018-12-01T12:38:18.077Z,29.80
2018-12-01T12:40:47.620Z,32.10
2018-12-01T12:43:17.158Z,30.10
2018-12-01T12:45:46.762Z,29.40
2018-12-01T12:48:21.624Z,29.43
2018-12-01T12:50:55.405Z,31.80
2018-12-01T12:53:25.191Z,31.00
2018-12-01T12:55:54.793Z,30.17
2018-12-01T12:58:24.387Z,29.30
2018-12-01T13:00:54.071Z,29.10
2018-12-01T13:03:23.243Z,30.40
2018-12-01T13:05:52.703Z,30.33
2018-12-01T13:08:22.414Z,29.37
2018-12-01T13:13:43.546Z,29.40
2018-12-01T13:16:13.012Z,29.90
2018-12-01T13:18:42.570Z,30.70
2018-12-01T13:21:12.154Z,32.03
2018-12-01T13:23:41.330Z,32.67
2018-12-01T13:26:11.207Z,30.30
2018-12-01T13:28:40.813Z,32.43
2018-12-01T13:31:10.390Z,32.10
2018-12-01T13:33:39.956Z,31.03
2018-12-01T13:36:09.551Z,32.00
2018-12-01T13:38:39.164Z,33.50
2018-12-01T13:41:09.353Z,33.60
2018-12-01T13:43:39.278Z,36.47
2018-12-01T13:46:09.123Z,35.67
2018-12-01T13:48:38.820Z,40.37
2018-12-01T13:51:08.476Z,38.70
2018-12-01T13:53:38.085Z,38.73
2018-12-01T13:56:07.635Z,33.80
2018-12-01T13:58:37.235Z,37.83
2018-12-01T14:01:07.177Z,37.93
2018-12-01T14:03:36.363Z,38.70
2018-12-01T14:06:06.487Z,45.13
2018-12-01T14:08:36.051Z,44.07
2018-12-01T14:11:06.690Z,43.30
2018-12-01T14:13:37.746Z,34.83
2018-12-01T14:16:07.035Z,37.07
2018-12-01T14:18:36.583Z,36.13
2018-12-01T14:21:06.205Z,45.80
2018-12-01T14:23:35.472Z,41.87
2018-12-01T14:26:05.427Z,39.93
2018-12-01T14:28:35.023Z,42.13
2018-12-01T14:31:05.185Z,48.10
2018-12-01T14:33:35.178Z,52.47
2018-12-01T14:36:05.041Z,40.27
2018-12-01T14:38:34.606Z,35.97
2018-12-01T14:41:03.811Z,41.03
2018-12-01T14:43:32.890Z,35.40
2018-12-01T14:46:02.366Z,40.23
2018-12-01T14:48:31.966Z,37.83
2018-12-01T14:51:01.531Z,40.27
2018-12-01T14:53:31.765Z,40.27
2018-12-01T14:56:01.346Z,39.73
2018-12-01T14:58:30.917Z,44.80
2018-12-01T15:01:00.464Z,43.87
2018-12-01T15:03:30.055Z,48.53
2018-12-01T15:05:59.638Z,43.20
2018-12-01T15:08:29.235Z,41.83
2018-12-01T15:10:58.791Z,37.80
2018-12-01T15:13:28.345Z,36.47
2018-12-01T15:15:57.975Z,46.00
2018-12-01T15:18:27.555Z,41.23
2018-12-01T15:20:56.737Z,38.23
2018-12-01T15:23:25.825Z,39.27
2018-12-01T15:25:55.113Z,39.67
2018-12-01T15:28:24.791Z,45.03
2018-12-01T15:30:54.391Z,47.17
2018-12-01T15:33:23.858Z,42.93
2018-12-01T15:35:53.367Z,40.60
2018-12-01T15:38:23.095Z,43.20
2018-12-01T15:40:53.042Z,40.27
2018-12-01T15:43:22.751Z,39.90
2018-12-01T15:45:52.337Z,37.90
2018-12-01T15:48:21.673Z,40.53
2018-12-01T15:50:51.162Z,41.57
2018-12-01T15:53:22.008Z,49.83
2018-12-01T15:55:51.571Z,53.90
2018-12-01T15:58:22.553Z,65.83
2018-12-01T16:00:52.669Z,62.73
2018-12-01T16:03:21.846Z,63.90
2018-12-01T16:05:52.096Z,59.83
2018-12-01T16:08:21.696Z,57.17
2018-12-01T16:10:51.450Z,55.37
2018-12-01T16:13:22.305Z,62.27
2018-12-01T16:15:54.316Z,86.53
2018-12-01T16:18:23.524Z,75.17
2018-12-01T16:20:53.015Z,55.97
2018-12-01T16:23:22.759Z,44.50
2018-12-01T16:25:52.910Z,47.97
2018-12-01T16:28:22.101Z,48.70
2018-12-01T16:30:51.850Z,46.77
2018-12-01T16:33:22.001Z,49.77
2018-12-01T16:35:51.950Z,55.03
2018-12-01T16:38:23.031Z,54.13
2018-12-01T16:40:54.087Z,60.63
2018-12-01T16:43:24.094Z,54.73
2018-12-01T16:45:54.016Z,55.37
2018-12-01T16:48:23.818Z,55.73
2018-12-01T16:50:53.593Z,64.23
2018-12-01T16:53:23.718Z,64.63
2018-12-01T16:55:53.347Z,58.27
2018-12-01T16:58:23.052Z,56.13
2018-12-01T17:00:53.156Z,52.60
2018-12-01T17:03:22.699Z,54.80
2018-12-01T17:05:54.223Z,52.07
2018-12-01T17:08:24.031Z,53.57
2018-12-01T17:10:53.175Z,47.70
2018-12-01T17:13:22.723Z,51.40
2018-12-01T17:15:52.298Z,55.00
2018-12-01T17:18:21.862Z,51.63
2018-12-01T17:20:51.494Z,53.10
2018-12-01T17:23:21.077Z,64.97
2018-12-01T17:25:50.638Z,52.73
2018-12-01T17:28:20.550Z,61.30
2018-12-01T17:30:50.696Z,65.27
2018-12-01T17:33:20.331Z,78.47
2018-12-01T17:35:49.919Z,70.10
2018-12-01T17:38:20.868Z,70.50
2018-12-01T17:41:29.855Z,70.60
2018-12-01T17:44:03.548Z,62.73
2018-12-01T17:46:33.150Z,62.00
2018-12-01T17:49:03.448Z,64.23
2018-12-01T17:51:33.042Z,66.30
2018-12-01T17:54:07.555Z,67.23
2018-12-01T17:56:37.186Z,70.63
2018-12-01T17:59:07.023Z,77.03
2018-12-01T18:01:36.599Z,62.43
2018-12-01T18:04:06.759Z,70.30
2018-12-01T18:06:36.318Z,64.10
2018-12-01T18:09:08.363Z,73.80
2018-12-01T18:11:38.011Z,74.00
2018-12-01T18:14:09.387Z,82.33
2018-12-01T18:16:39.157Z,69.87
2018-12-01T18:19:08.706Z,61.43
2018-12-01T18:21:38.319Z,69.73
2018-12-01T18:24:07.887Z,67.73
2018-12-01T18:26:37.430Z,79.30
2018-12-01T18:29:07.004Z,90.63
2018-12-01T18:31:36.591Z,91.90
2018-12-01T18:34:12.335Z,81.20
2018-12-01T18:36:41.939Z,82.87
2018-12-01T18:39:26.134Z,83.77
2018-12-01T18:41:56.075Z,90.73
2018-12-01T18:44:25.626Z,81.60
2018-12-01T18:46:55.170Z,89.30
2018-12-01T18:49:24.754Z,85.60
2018-12-01T18:51:54.350Z,69.80
2018-12-01T18:54:23.891Z,65.40
2018-12-01T18:56:53.470Z,64.70
2018-12-01T18:59:23.014Z,59.97
2018-12-01T19:01:52.899Z,64.23
2018-12-01T19:04:22.497Z,67.63
2018-12-01T19:06:52.039Z,78.10
2018-12-01T19:09:21.591Z,72.80
2018-12-01T19:11:50.798Z,78.47
2018-12-01T19:14:19.878Z,85.63
2018-12-01T19:16:49.368Z,109.50
2018-12-01T19:19:18.552Z,106.57
2018-12-01T19:21:48.032Z,100.23
2018-12-01T19:24:17.210Z,77.80
2018-12-01T19:26:46.315Z,75.53
2018-12-01T19:29:15.406Z,91.07
2018-12-01T19:31:44.479Z,85.50
2018-12-01T19:34:13.970Z,84.30
2018-12-01T19:36:43.512Z,79.93
2018-12-01T19:39:13.066Z,82.00
2018-12-01T19:41:42.604Z,78.30
2018-12-01T19:44:12.152Z,87.93
2018-12-01T19:46:41.695Z,92.33
2018-12-01T19:49:11.227Z,79.03
2018-12-01T19:51:40.798Z,84.40
2018-12-01T19:54:10.386Z,84.77
2018-12-01T19:56:39.947Z,84.53
2018-12-01T19:59:09.524Z,84.97
2018-12-01T20:01:39.071Z,97.00
2018-12-01T20:04:08.655Z,83.97
2018-12-01T20:06:38.201Z,86.80
2018-12-01T20:09:08.967Z,85.63
2018-12-01T20:11:38.515Z,90.47
2018-12-01T20:14:10.750Z,86.97
2018-12-01T20:16:42.369Z,94.57
2018-12-01T20:19:11.967Z,86.87
2018-12-01T20:21:41.526Z,87.80
2018-12-01T20:24:11.069Z,77.53
2018-12-01T20:26:41.860Z,80.57
2018-12-01T20:29:11.461Z,89.30
2018-12-01T20:31:41.028Z,74.13
2018-12-01T20:34:10.839Z,77.17
2018-12-01T20:36:45.376Z,78.77
2018-12-01T20:39:16.667Z,73.73
2018-12-01T20:41:46.210Z,76.93
2018-12-01T20:44:15.421Z,66.53
2018-12-01T20:46:44.931Z,69.43
2018-12-01T20:49:14.484Z,68.87
2018-12-01T20:51:43.654Z,75.13
2018-12-01T20:54:19.156Z,76.37
2018-12-01T20:56:48.599Z,83.17
2018-12-01T20:59:18.159Z,76.73
2018-12-01T21:01:47.322Z,72.67
2018-12-01T21:04:16.783Z,69.53
2018-12-01T21:06:45.954Z,70.17
2018-12-01T21:09:15.691Z,65.10
2018-12-01T21:11:45.359Z,62.07
2018-12-01T21:14:14.522Z,65.67
2018-12-01T21:16:44.015Z,59.40
2018-12-01T21:19:13.565Z,56.87
2018-12-01T21:21:43.122Z,54.73
2018-12-01T21:24:12.318Z,57.23
2018-12-01T21:26:41.783Z,58.00
2018-12-01T21:29:11.153Z,58.67
2018-12-01T21:31:44.138Z,56.20
2018-12-01T21:34:17.359Z,57.00
2018-12-01T21:36:46.612Z,56.57
2018-12-01T21:39:17.454Z,55.87
2018-12-01T21:41:47.331Z,52.60
2018-12-01T21:44:16.872Z,54.60
2018-12-01T21:46:46.403Z,58.50
2018-12-01T21:49:15.995Z,54.43
2018-12-01T21:51:45.579Z,54.20
2018-12-01T21:54:15.147Z,52.17
2018-12-01T21:56:44.860Z,53.80
2018-12-01T21:59:17.995Z,57.27
2018-12-01T22:01:47.575Z,60.23
2018-12-01T22:04:17.145Z,55.23
2018-12-01T22:06:46.353Z,56.23
2018-12-01T22:09:15.824Z,55.00
2018-12-01T22:11:45.375Z,53.97
2018-12-01T22:14:15.166Z,57.37
2018-12-01T22:16:44.631Z,56.23
2018-12-01T22:19:14.170Z,52.37
2018-12-01T22:21:43.750Z,51.40
2018-12-01T22:24:12.930Z,53.00
2018-12-01T22:26:42.587Z,53.13
2018-12-01T22:29:12.210Z,53.50
2018-12-01T22:31:41.763Z,52.63
2018-12-01T22:34:11.319Z,54.67
2018-12-01T22:36:40.878Z,52.00
2018-12-01T22:39:11.159Z,53.07
2018-12-01T22:41:40.702Z,54.33
2018-12-01T22:44:10.253Z,55.37
2018-12-01T22:46:39.790Z,58.87
2018-12-01T22:49:09.252Z,58.40
2018-12-01T22:51:38.830Z,57.57
2018-12-01T22:54:08.491Z,62.83
2018-12-01T22:56:38.067Z,59.20
2018-12-01T22:59:07.623Z,57.67
2018-12-01T23:01:37.286Z,57.73
2018-12-01T23:04:07.560Z,56.07
2018-12-01T23:06:37.115Z,58.30
2018-12-01T23:09:07.098Z,56.50
2018-12-01T23:11:36.375Z,56.90
2018-12-01T23:14:06.083Z,56.13
2018-12-01T23:16:35.670Z,57.07
2018-12-01T23:19:05.007Z,57.13
2018-12-01T23:21:34.531Z,54.70
2018-12-01T23:24:03.749Z,55.07
2018-12-01T23:26:33.295Z,54.97
2018-12-01T23:29:02.951Z,53.23
2018-12-01T23:31:32.523Z,53.73
2018-12-01T23:34:01.731Z,54.43
2018-12-01T23:36:36.107Z,48.83
2018-12-01T23:39:05.650Z,51.97
2018-12-01T23:41:35.168Z,50.57
2018-12-01T23:44:04.755Z,49.63
2018-12-01T23:46:34.227Z,52.23
2018-12-01T23:49:03.804Z,51.43
2018-12-01T23:51:33.364Z,49.67
2018-12-01T23:54:02.695Z,48.87
2018-12-01T23:56:32.277Z,51.90
2018-12-01T23:59:01.839Z,48.83
